sensor_id;sensor_type;location;lat;lon;timestamp;P1;durP1;ratioP1;P2;durP2;ratioP2
48588;SDS011;34369;51.174;6.738;2023-05-10T00:00:50;33.60;;;31.20;;
48588;SDS011;34369;51.174;6.738;2023-05-10T00:03:23;32.22;;;30.02;;
48588;SDS011;34369;51.174;6.738;2023-05-10T00:05:56;34.08;;;31.65;;
48588;SDS011;34369;51.174;6.738;2023-05-10T00:08:28;32.45;;;30.15;;
48588;SDS011;34369;51.174;6.738;2023-05-10T00:11:04;32.77;;;30.43;;
48588;SDS011;34369;51.174;6.738;2023-05-10T00:13:36;33.30;;;30.90;;
48588;SDS011;34369;51.174;6.738;2023-05-10T00:16:10;33.38;;;31.02;;
48588;SDS011;34369;51.174;6.738;2023-05-10T00:18:43;34.80;;;32.30;;
48588;SDS011;34369;51.174;6.738;2023-05-10T00:21:16;34.25;;;31.85;;
48588;SDS011;34369;51.174;6.738;2023-05-10T00:23:49;34.85;;;32.33;;
48588;SDS011;34369;51.174;6.738;2023-05-10T00:26:21;33.20;;;30.85;;
48588;SDS011;34369;51.174;6.738;2023-05-10T00:28:53;32.88;;;30.58;;
48588;SDS011;34369;51.174;6.738;2023-05-10T00:31:28;32.85;;;30.55;;
48588;SDS011;34369;51.174;6.738;2023-05-10T00:34:00;34.20;;;31.70;;
48588;SDS011;34369;51.174;6.738;2023-05-10T00:36:32;35.10;;;32.30;;
48588;SDS011;34369;51.174;6.738;2023-05-10T00:39:04;33.90;;;31.45;;
48588;SDS011;34369;51.174;6.738;2023-05-10T00:41:37;34.20;;;31.70;;
48588;SDS011;34369;51.174;6.738;2023-05-10T00:44:08;33.78;;;31.30;;
48588;SDS011;34369;51.174;6.738;2023-05-10T00:46:42;33.97;;;31.50;;
48588;SDS011;34369;51.174;6.738;2023-05-10T00:49:14;33.35;;;30.98;;
48588;SDS011;34369;51.174;6.738;2023-05-10T00:51:47;34.38;;;31.95;;
48588;SDS011;34369;51.174;6.738;2023-05-10T00:54:19;33.65;;;31.15;;
48588;SDS011;34369;51.174;6.738;2023-05-10T00:56:52;33.65;;;31.35;;
48588;SDS011;34369;51.174;6.738;2023-05-10T00:59:24;33.33;;;30.95;;
48588;SDS011;34369;51.174;6.738;2023-05-10T01:02:00;32.80;;;30.40;;
48588;SDS011;34369;51.174;6.738;2023-05-10T01:04:32;34.35;;;31.95;;
48588;SDS011;34369;51.174;6.738;2023-05-10T01:07:05;33.03;;;30.67;;
48588;SDS011;34369;51.174;6.738;2023-05-10T01:09:38;32.22;;;30.02;;
48588;SDS011;34369;51.174;6.738;2023-05-10T01:12:10;32.45;;;30.08;;
48588;SDS011;34369;51.174;6.738;2023-05-10T01:14:43;33.20;;;30.90;;
48588;SDS011;34369;51.174;6.738;2023-05-10T01:17:19;33.45;;;31.02;;
48588;SDS011;34369;51.174;6.738;2023-05-10T01:19:52;33.20;;;30.90;;
48588;SDS011;34369;51.174;6.738;2023-05-10T01:22:31;33.33;;;30.90;;
48588;SDS011;34369;51.174;6.738;2023-05-10T01:25:56;33.33;;;30.92;;
48588;SDS011;34369;51.174;6.738;2023-05-10T01:29:27;32.87;;;30.27;;
48588;SDS011;34369;51.174;6.738;2023-05-10T01:32:46;32.33;;;30.13;;
48588;SDS011;34369;51.174;6.738;2023-05-10T01:35:26;33.80;;;31.40;;
48588;SDS011;34369;51.174;6.738;2023-05-10T01:38:07;32.55;;;30.25;;
48588;SDS011;34369;51.174;6.738;2023-05-10T01:40:48;32.90;;;30.50;;
48588;SDS011;34369;51.174;6.738;2023-05-10T01:43:33;32.47;;;30.17;;
48588;SDS011;34369;51.174;6.738;2023-05-10T01:46:16;33.63;;;31.23;;
48588;SDS011;34369;51.174;6.738;2023-05-10T01:48:58;32.85;;;30.55;;
48588;SDS011;34369;51.174;6.738;2023-05-10T01:51:36;32.50;;;30.10;;
48588;SDS011;34369;51.174;6.738;2023-05-10T01:54:12;32.55;;;30.25;;
48588;SDS011;34369;51.174;6.738;2023-05-10T01:56:45;33.00;;;30.70;;
48588;SDS011;34369;51.174;6.738;2023-05-10T01:59:24;31.77;;;29.58;;
48588;SDS011;34369;51.174;6.738;2023-05-10T02:02:02;31.52;;;29.35;;
48588;SDS011;34369;51.174;6.738;2023-05-10T02:04:37;31.60;;;29.30;;
48588;SDS011;34369;51.174;6.738;2023-05-10T02:07:12;31.67;;;29.48;;
48588;SDS011;34369;51.174;6.738;2023-05-10T02:09:46;32.45;;;30.15;;
48588;SDS011;34369;51.174;6.738;2023-05-10T02:12:19;32.05;;;29.75;;
48588;SDS011;34369;51.174;6.738;2023-05-10T02:14:54;31.08;;;28.90;;
48588;SDS011;34369;51.174;6.738;2023-05-10T02:17:28;30.55;;;28.45;;
48588;SDS011;34369;51.174;6.738;2023-05-10T02:20:04;31.73;;;29.45;;
48588;SDS011;34369;51.174;6.738;2023-05-10T02:22:39;30.27;;;28.17;;
48588;SDS011;34369;51.174;6.738;2023-05-10T02:25:13;31.10;;;28.92;;
48588;SDS011;34369;51.174;6.738;2023-05-10T02:27:47;31.27;;;29.08;;
48588;SDS011;34369;51.174;6.738;2023-05-10T02:30:21;30.42;;;28.33;;
48588;SDS011;34369;51.174;6.738;2023-05-10T02:32:55;31.05;;;28.92;;
48588;SDS011;34369;51.174;6.738;2023-05-10T02:35:30;29.77;;;27.67;;
48588;SDS011;34369;51.174;6.738;2023-05-10T02:38:03;30.27;;;28.17;;
48588;SDS011;34369;51.174;6.738;2023-05-10T02:40:37;29.45;;;27.45;;
48588;SDS011;34369;51.174;6.738;2023-05-10T02:43:14;29.85;;;27.67;;
48588;SDS011;34369;51.174;6.738;2023-05-10T02:45:47;30.52;;;28.42;;
48588;SDS011;34369;51.174;6.738;2023-05-10T02:48:20;29.75;;;27.75;;
48588;SDS011;34369;51.174;6.738;2023-05-10T02:50:56;30.52;;;28.42;;
48588;SDS011;34369;51.174;6.738;2023-05-10T02:53:37;29.70;;;27.70;;
48588;SDS011;34369;51.174;6.738;2023-05-10T02:56:18;30.30;;;28.20;;
48588;SDS011;34369;51.174;6.738;2023-05-10T02:58:57;30.92;;;28.80;;
48588;SDS011;34369;51.174;6.738;2023-05-10T03:01:29;30.63;;;28.52;;
48588;SDS011;34369;51.174;6.738;2023-05-10T03:04:02;30.25;;;28.08;;
48588;SDS011;34369;51.174;6.738;2023-05-10T03:06:37;30.10;;;28.02;;
48588;SDS011;34369;51.174;6.738;2023-05-10T03:09:09;29.70;;;27.70;;
48588;SDS011;34369;51.174;6.738;2023-05-10T03:11:47;29.60;;;27.60;;
48588;SDS011;34369;51.174;6.738;2023-05-10T03:14:34;29.13;;;27.17;;
48588;SDS011;34369;51.174;6.738;2023-05-10T03:17:18;30.10;;;28.08;;
48588;SDS011;34369;51.174;6.738;2023-05-10T03:19:57;30.00;;;27.95;;
48588;SDS011;34369;51.174;6.738;2023-05-10T03:22:41;30.95;;;28.85;;
48588;SDS011;34369;51.174;6.738;2023-05-10T03:25:20;30.98;;;28.98;;
48588;SDS011;34369;51.174;6.738;2023-05-10T03:27:53;31.23;;;29.13;;
48588;SDS011;34369;51.174;6.738;2023-05-10T03:30:28;30.42;;;28.42;;
48588;SDS011;34369;51.174;6.738;2023-05-10T03:33:04;31.08;;;28.77;;
48588;SDS011;34369;51.174;6.738;2023-05-10T03:35:39;30.25;;;28.15;;
48588;SDS011;34369;51.174;6.738;2023-05-10T03:38:20;31.00;;;28.90;;
48588;SDS011;34369;51.174;6.738;2023-05-10T03:40:54;31.17;;;29.00;;
48588;SDS011;34369;51.174;6.738;2023-05-10T03:43:30;31.40;;;29.20;;
48588;SDS011;34369;51.174;6.738;2023-05-10T03:46:07;32.13;;;29.77;;
48588;SDS011;34369;51.174;6.738;2023-05-10T03:48:43;31.42;;;29.23;;
48588;SDS011;34369;51.174;6.738;2023-05-10T03:51:20;32.15;;;29.90;;
48588;SDS011;34369;51.174;6.738;2023-05-10T03:54:01;29.98;;;27.70;;
48588;SDS011;34369;51.174;6.738;2023-05-10T03:56:36;31.73;;;29.42;;
48588;SDS011;34369;51.174;6.738;2023-05-10T03:59:11;31.60;;;29.30;;
48588;SDS011;34369;51.174;6.738;2023-05-10T04:01:49;33.10;;;30.70;;
48588;SDS011;34369;51.174;6.738;2023-05-10T04:04:35;32.60;;;30.10;;
48588;SDS011;34369;51.174;6.738;2023-05-10T04:07:10;33.33;;;30.85;;
48588;SDS011;34369;51.174;6.738;2023-05-10T04:09:52;32.78;;;30.27;;
48588;SDS011;34369;51.174;6.738;2023-05-10T04:12:28;32.15;;;29.75;;
48588;SDS011;34369;51.174;6.738;2023-05-10T04:15:08;31.95;;;29.65;;
48588;SDS011;34369;51.174;6.738;2023-05-10T04:17:43;32.92;;;30.52;;
48588;SDS011;34369;51.174;6.738;2023-05-10T04:20:21;34.58;;;31.88;;
48588;SDS011;34369;51.174;6.738;2023-05-10T04:22:58;35.03;;;32.42;;
48588;SDS011;34369;51.174;6.738;2023-05-10T04:25:37;33.75;;;31.25;;
48588;SDS011;34369;51.174;6.738;2023-05-10T04:28:12;34.53;;;31.73;;
48588;SDS011;34369;51.174;6.738;2023-05-10T04:30:53;36.17;;;33.47;;
48588;SDS011;34369;51.174;6.738;2023-05-10T04:34:08;35.67;;;32.97;;
48588;SDS011;34369;51.174;6.738;2023-05-10T04:36:48;36.97;;;33.88;;
48588;SDS011;34369;51.174;6.738;2023-05-10T04:39:34;35.47;;;32.72;;
48588;SDS011;34369;51.174;6.738;2023-05-10T04:42:28;36.10;;;33.25;;
48588;SDS011;34369;51.174;6.738;2023-05-10T04:45:12;37.75;;;34.58;;
48588;SDS011;34369;51.174;6.738;2023-05-10T04:47:50;37.78;;;34.67;;
48588;SDS011;34369;51.174;6.738;2023-05-10T04:50:37;39.63;;;36.33;;
48588;SDS011;34369;51.174;6.738;2023-05-10T04:53:12;39.28;;;35.88;;
48588;SDS011;34369;51.174;6.738;2023-05-10T04:55:46;39.55;;;36.35;;
48588;SDS011;34369;51.174;6.738;2023-05-10T04:58:24;37.97;;;34.90;;
48588;SDS011;34369;51.174;6.738;2023-05-10T05:01:03;36.47;;;33.53;;
48588;SDS011;34369;51.174;6.738;2023-05-10T05:03:41;36.97;;;33.97;;
48588;SDS011;34369;51.174;6.738;2023-05-10T05:06:15;38.55;;;35.35;;
48588;SDS011;34369;51.174;6.738;2023-05-10T05:08:51;37.60;;;34.42;;
48588;SDS011;34369;51.174;6.738;2023-05-10T05:11:25;37.95;;;34.80;;
48588;SDS011;34369;51.174;6.738;2023-05-10T05:16:59;35.95;;;33.15;;
48588;SDS011;34369;51.174;6.738;2023-05-10T05:19:34;36.47;;;33.67;;
48588;SDS011;34369;51.174;6.738;2023-05-10T05:22:09;37.80;;;34.80;;
48588;SDS011;34369;51.174;6.738;2023-05-10T05:24:43;35.90;;;33.10;;
48588;SDS011;34369;51.174;6.738;2023-05-10T05:27:17;35.45;;;32.70;;
48588;SDS011;34369;51.174;6.738;2023-05-10T05:29:56;35.47;;;32.58;;
48588;SDS011;34369;51.174;6.738;2023-05-10T05:32:30;35.20;;;32.30;;
48588;SDS011;34369;51.174;6.738;2023-05-10T05:35:04;34.13;;;31.38;;
48588;SDS011;34369;51.174;6.738;2023-05-10T05:37:42;34.72;;;32.05;;
48588;SDS011;34369;51.174;6.738;2023-05-10T05:40:15;35.25;;;32.58;;
48588;SDS011;34369;51.174;6.738;2023-05-10T05:42:53;34.10;;;31.52;;
48588;SDS011;34369;51.174;6.738;2023-05-10T05:45:29;36.95;;;33.85;;
48588;SDS011;34369;51.174;6.738;2023-05-10T05:48:04;34.75;;;32.05;;
48588;SDS011;34369;51.174;6.738;2023-05-10T05:50:38;34.17;;;31.65;;
48588;SDS011;34369;51.174;6.738;2023-05-10T05:53:11;35.38;;;32.58;;
48588;SDS011;34369;51.174;6.738;2023-05-10T05:55:50;34.92;;;32.20;;
48588;SDS011;34369;51.174;6.738;2023-05-10T05:58:25;34.70;;;32.00;;
48588;SDS011;34369;51.174;6.738;2023-05-10T06:00:59;34.70;;;32.08;;
48588;SDS011;34369;51.174;6.738;2023-05-10T06:03:33;35.10;;;32.38;;
48588;SDS011;34369;51.174;6.738;2023-05-10T06:06:05;36.25;;;33.42;;
48588;SDS011;34369;51.174;6.738;2023-05-10T06:08:38;35.83;;;32.97;;
48588;SDS011;34369;51.174;6.738;2023-05-10T06:11:13;35.58;;;32.58;;
48588;SDS011;34369;51.174;6.738;2023-05-10T06:13:45;35.20;;;32.50;;
48588;SDS011;34369;51.174;6.738;2023-05-10T06:16:20;34.13;;;31.45;;
48588;SDS011;34369;51.174;6.738;2023-05-10T06:18:53;36.05;;;33.10;;
48588;SDS011;34369;51.174;6.738;2023-05-10T06:21:25;35.13;;;32.40;;
48588;SDS011;34369;51.174;6.738;2023-05-10T06:23:58;36.03;;;33.22;;
48588;SDS011;34369;51.174;6.738;2023-05-10T06:26:32;36.28;;;33.17;;
48588;SDS011;34369;51.174;6.738;2023-05-10T06:29:06;35.85;;;32.95;;
48588;SDS011;34369;51.174;6.738;2023-05-10T06:31:41;36.25;;;33.30;;
48588;SDS011;34369;51.174;6.738;2023-05-10T06:34:13;36.40;;;33.58;;
48588;SDS011;34369;51.174;6.738;2023-05-10T06:36:46;34.33;;;31.73;;
48588;SDS011;34369;51.174;6.738;2023-05-10T06:39:19;34.88;;;32.03;;
48588;SDS011;34369;51.174;6.738;2023-05-10T06:41:52;36.88;;;33.88;;
48588;SDS011;34369;51.174;6.738;2023-05-10T06:44:26;35.33;;;32.72;;
48588;SDS011;34369;51.174;6.738;2023-05-10T06:47:02;37.45;;;34.45;;
48588;SDS011;34369;51.174;6.738;2023-05-10T06:49:36;35.13;;;32.30;;
48588;SDS011;34369;51.174;6.738;2023-05-10T06:52:11;35.60;;;32.80;;
48588;SDS011;34369;51.174;6.738;2023-05-10T06:54:43;35.80;;;32.80;;
48588;SDS011;34369;51.174;6.738;2023-05-10T06:57:17;37.30;;;34.13;;
48588;SDS011;34369;51.174;6.738;2023-05-10T06:59:52;37.20;;;33.88;;
48588;SDS011;34369;51.174;6.738;2023-05-10T07:02:29;35.38;;;32.47;;
48588;SDS011;34369;51.174;6.738;2023-05-10T07:05:05;35.55;;;32.70;;
48588;SDS011;34369;51.174;6.738;2023-05-10T07:07:39;35.95;;;33.05;;
48588;SDS011;34369;51.174;6.738;2023-05-10T07:10:13;34.88;;;31.98;;
48588;SDS011;34369;51.174;6.738;2023-05-10T07:12:48;35.47;;;32.33;;
48588;SDS011;34369;51.174;6.738;2023-05-10T07:15:23;35.22;;;32.42;;
48588;SDS011;34369;51.174;6.738;2023-05-10T07:17:59;36.65;;;33.63;;
48588;SDS011;34369;51.174;6.738;2023-05-10T07:20:34;35.17;;;32.38;;
48588;SDS011;34369;51.174;6.738;2023-05-10T07:23:08;36.22;;;33.22;;
48588;SDS011;34369;51.174;6.738;2023-05-10T07:25:42;35.42;;;32.63;;
48588;SDS011;34369;51.174;6.738;2023-05-10T07:28:17;34.55;;;31.75;;
48588;SDS011;34369;51.174;6.738;2023-05-10T07:30:50;34.63;;;31.85;;
48588;SDS011;34369;51.174;6.738;2023-05-10T07:33:25;35.45;;;32.65;;
48588;SDS011;34369;51.174;6.738;2023-05-10T07:35:58;34.40;;;31.70;;
48588;SDS011;34369;51.174;6.738;2023-05-10T07:38:32;33.83;;;31.17;;
48588;SDS011;34369;51.174;6.738;2023-05-10T07:41:04;35.13;;;32.42;;
48588;SDS011;34369;51.174;6.738;2023-05-10T07:43:37;35.70;;;32.83;;
48588;SDS011;34369;51.174;6.738;2023-05-10T07:46:09;35.90;;;33.00;;
48588;SDS011;34369;51.174;6.738;2023-05-10T07:48:45;36.72;;;33.65;;
48588;SDS011;34369;51.174;6.738;2023-05-10T07:51:17;36.90;;;33.80;;
48588;SDS011;34369;51.174;6.738;2023-05-10T07:53:51;37.85;;;34.75;;
48588;SDS011;34369;51.174;6.738;2023-05-10T07:56:26;37.60;;;34.45;;
48588;SDS011;34369;51.174;6.738;2023-05-10T07:59:02;37.58;;;34.47;;
48588;SDS011;34369;51.174;6.738;2023-05-10T08:01:37;38.38;;;35.03;;
48588;SDS011;34369;51.174;6.738;2023-05-10T08:04:11;40.92;;;37.17;;
48588;SDS011;34369;51.174;6.738;2023-05-10T08:06:45;40.38;;;36.58;;
48588;SDS011;34369;51.174;6.738;2023-05-10T08:09:29;40.83;;;36.85;;
48588;SDS011;34369;51.174;6.738;2023-05-10T08:12:04;40.90;;;37.30;;
48588;SDS011;34369;51.174;6.738;2023-05-10T08:14:38;41.50;;;37.50;;
48588;SDS011;34369;51.174;6.738;2023-05-10T08:17:11;40.38;;;36.85;;
48588;SDS011;34369;51.174;6.738;2023-05-10T08:19:47;41.38;;;37.30;;
48588;SDS011;34369;51.174;6.738;2023-05-10T08:22:19;41.40;;;37.58;;
48588;SDS011;34369;51.174;6.738;2023-05-10T08:24:52;42.67;;;38.67;;
48588;SDS011;34369;51.174;6.738;2023-05-10T08:27:27;43.88;;;39.75;;
48588;SDS011;34369;51.174;6.738;2023-05-10T08:30:01;45.13;;;40.42;;
48588;SDS011;34369;51.174;6.738;2023-05-10T08:32:38;44.95;;;40.35;;
48588;SDS011;34369;51.174;6.738;2023-05-10T08:35:15;43.65;;;39.20;;
48588;SDS011;34369;51.174;6.738;2023-05-10T08:38:01;43.67;;;39.47;;
48588;SDS011;34369;51.174;6.738;2023-05-10T08:40:35;44.35;;;39.83;;
48588;SDS011;34369;51.174;6.738;2023-05-10T08:43:12;45.17;;;40.72;;
48588;SDS011;34369;51.174;6.738;2023-05-10T08:45:47;43.33;;;39.17;;
48588;SDS011;34369;51.174;6.738;2023-05-10T08:48:30;42.30;;;38.45;;
48588;SDS011;34369;51.174;6.738;2023-05-10T08:51:06;42.90;;;38.92;;
48588;SDS011;34369;51.174;6.738;2023-05-10T08:53:40;41.88;;;37.80;;
48588;SDS011;34369;51.174;6.738;2023-05-10T08:56:18;41.53;;;37.55;;
48588;SDS011;34369;51.174;6.738;2023-05-10T08:58:54;41.80;;;37.95;;
48588;SDS011;34369;51.174;6.738;2023-05-10T09:01:30;38.67;;;35.20;;
48588;SDS011;34369;51.174;6.738;2023-05-10T09:04:05;40.05;;;36.50;;
48588;SDS011;34369;51.174;6.738;2023-05-10T09:06:47;38.63;;;35.22;;
48588;SDS011;34369;51.174;6.738;2023-05-10T09:09:22;39.22;;;35.78;;
48588;SDS011;34369;51.174;6.738;2023-05-10T09:11:57;38.42;;;35.13;;
48588;SDS011;34369;51.174;6.738;2023-05-10T09:14:33;39.20;;;35.60;;
48588;SDS011;34369;51.174;6.738;2023-05-10T09:17:09;38.72;;;35.45;;
48588;SDS011;34369;51.174;6.738;2023-05-10T09:19:45;40.13;;;36.70;;
48588;SDS011;34369;51.174;6.738;2023-05-10T09:22:21;38.70;;;35.20;;
48588;SDS011;34369;51.174;6.738;2023-05-10T09:25:05;37.70;;;34.30;;
48588;SDS011;34369;51.174;6.738;2023-05-10T09:27:41;37.03;;;33.65;;
48588;SDS011;34369;51.174;6.738;2023-05-10T09:30:23;35.60;;;32.67;;
48588;SDS011;34369;51.174;6.738;2023-05-10T09:32:58;36.47;;;33.50;;
48588;SDS011;34369;51.174;6.738;2023-05-10T09:35:32;35.03;;;32.33;;
48588;SDS011;34369;51.174;6.738;2023-05-10T09:38:06;36.05;;;33.03;;
48588;SDS011;34369;51.174;6.738;2023-05-10T09:40:41;36.15;;;33.20;;
48588;SDS011;34369;51.174;6.738;2023-05-10T09:43:29;36.45;;;33.35;;
48588;SDS011;34369;51.174;6.738;2023-05-10T09:46:10;35.05;;;32.15;;
48588;SDS011;34369;51.174;6.738;2023-05-10T09:48:44;35.42;;;32.35;;
48588;SDS011;34369;51.174;6.738;2023-05-10T09:51:19;36.97;;;33.75;;
48588;SDS011;34369;51.174;6.738;2023-05-10T09:54:08;36.85;;;33.78;;
48588;SDS011;34369;51.174;6.738;2023-05-10T09:56:42;36.10;;;33.17;;
48588;SDS011;34369;51.174;6.738;2023-05-10T09:59:15;36.08;;;33.08;;
48588;SDS011;34369;51.174;6.738;2023-05-10T10:01:50;36.08;;;33.15;;
48588;SDS011;34369;51.174;6.738;2023-05-10T10:04:30;34.28;;;31.35;;
48588;SDS011;34369;51.174;6.738;2023-05-10T10:07:03;34.67;;;31.90;;
48588;SDS011;34369;51.174;6.738;2023-05-10T10:09:38;35.00;;;32.17;;
48588;SDS011;34369;51.174;6.738;2023-05-10T10:12:11;35.67;;;32.67;;
48588;SDS011;34369;51.174;6.738;2023-05-10T10:14:46;37.55;;;34.35;;
48588;SDS011;34369;51.174;6.738;2023-05-10T10:17:20;35.38;;;32.38;;
48588;SDS011;34369;51.174;6.738;2023-05-10T10:19:53;35.08;;;32.05;;
48588;SDS011;34369;51.174;6.738;2023-05-10T10:22:29;34.63;;;31.83;;
48588;SDS011;34369;51.174;6.738;2023-05-10T10:25:03;35.47;;;32.65;;
48588;SDS011;34369;51.174;6.738;2023-05-10T10:27:41;33.55;;;30.75;;
48588;SDS011;34369;51.174;6.738;2023-05-10T10:30:21;34.22;;;31.42;;
48588;SDS011;34369;51.174;6.738;2023-05-10T10:33:13;34.58;;;31.77;;
48588;SDS011;34369;51.174;6.738;2023-05-10T10:36:11;32.58;;;29.83;;
48588;SDS011;34369;51.174;6.738;2023-05-10T10:38:57;32.83;;;30.23;;
48588;SDS011;34369;51.174;6.738;2023-05-10T10:41:33;32.53;;;29.80;;
48588;SDS011;34369;51.174;6.738;2023-05-10T10:44:23;33.25;;;30.65;;
48588;SDS011;34369;51.174;6.738;2023-05-10T10:47:21;33.63;;;31.08;;
48588;SDS011;34369;51.174;6.738;2023-05-10T10:50:03;33.20;;;30.50;;
48588;SDS011;34369;51.174;6.738;2023-05-10T10:52:38;33.33;;;30.67;;
48588;SDS011;34369;51.174;6.738;2023-05-10T10:55:14;34.97;;;32.13;;
48588;SDS011;34369;51.174;6.738;2023-05-10T10:57:52;32.90;;;30.17;;
48588;SDS011;34369;51.174;6.738;2023-05-10T11:00:31;34.97;;;32.03;;
48588;SDS011;34369;51.174;6.738;2023-05-10T11:03:05;35.03;;;32.15;;
48588;SDS011;34369;51.174;6.738;2023-05-10T11:05:44;33.55;;;30.88;;
48588;SDS011;34369;51.174;6.738;2023-05-10T11:08:18;34.55;;;31.83;;
48588;SDS011;34369;51.174;6.738;2023-05-10T11:11:05;35.00;;;32.03;;
48588;SDS011;34369;51.174;6.738;2023-05-10T11:13:42;33.65;;;30.85;;
48588;SDS011;34369;51.174;6.738;2023-05-10T11:16:20;33.42;;;30.73;;
48588;SDS011;34369;51.174;6.738;2023-05-10T11:18:58;35.25;;;32.45;;
48588;SDS011;34369;51.174;6.738;2023-05-10T11:21:44;33.78;;;30.92;;
48588;SDS011;34369;51.174;6.738;2023-05-10T11:24:22;33.90;;;31.08;;
48588;SDS011;34369;51.174;6.738;2023-05-10T11:26:58;33.78;;;31.08;;
48588;SDS011;34369;51.174;6.738;2023-05-10T11:29:35;33.85;;;31.15;;
48588;SDS011;34369;51.174;6.738;2023-05-10T11:32:09;32.88;;;30.05;;
48588;SDS011;34369;51.174;6.738;2023-05-10T11:34:46;32.93;;;30.27;;
48588;SDS011;34369;51.174;6.738;2023-05-10T11:37:21;33.50;;;30.90;;
48588;SDS011;34369;51.174;6.738;2023-05-10T11:39:54;34.50;;;31.60;;
48588;SDS011;34369;51.174;6.738;2023-05-10T11:42:27;34.08;;;31.48;;
48588;SDS011;34369;51.174;6.738;2023-05-10T11:45:03;33.17;;;30.60;;
48588;SDS011;34369;51.174;6.738;2023-05-10T11:47:37;35.40;;;32.53;;
48588;SDS011;34369;51.174;6.738;2023-05-10T11:50:13;34.38;;;31.50;;
48588;SDS011;34369;51.174;6.738;2023-05-10T11:52:49;34.00;;;31.25;;
48588;SDS011;34369;51.174;6.738;2023-05-10T11:55:33;32.10;;;29.63;;
48588;SDS011;34369;51.174;6.738;2023-05-10T11:58:06;33.83;;;31.10;;
48588;SDS011;34369;51.174;6.738;2023-05-10T12:00:42;33.67;;;30.88;;
48588;SDS011;34369;51.174;6.738;2023-05-10T12:03:15;34.72;;;31.73;;
48588;SDS011;34369;51.174;6.738;2023-05-10T12:05:48;34.70;;;31.85;;
48588;SDS011;34369;51.174;6.738;2023-05-10T12:08:22;34.33;;;31.73;;
48588;SDS011;34369;51.174;6.738;2023-05-10T12:11:04;35.72;;;32.92;;
48588;SDS011;34369;51.174;6.738;2023-05-10T12:13:38;35.30;;;32.45;;
48588;SDS011;34369;51.174;6.738;2023-05-10T12:16:15;34.65;;;31.90;;
48588;SDS011;34369;51.174;6.738;2023-05-10T12:18:51;34.72;;;32.03;;
48588;SDS011;34369;51.174;6.738;2023-05-10T12:21:27;36.00;;;33.10;;
48588;SDS011;34369;51.174;6.738;2023-05-10T12:24:13;36.22;;;33.20;;
48588;SDS011;34369;51.174;6.738;2023-05-10T12:27:06;39.65;;;36.25;;
48588;SDS011;34369;51.174;6.738;2023-05-10T12:30:12;37.10;;;34.20;;
48588;SDS011;34369;51.174;6.738;2023-05-10T12:33:42;36.95;;;33.90;;
48588;SDS011;34369;51.174;6.738;2023-05-10T12:36:30;37.33;;;34.28;;
48588;SDS011;34369;51.174;6.738;2023-05-10T12:39:07;38.30;;;35.00;;
48588;SDS011;34369;51.174;6.738;2023-05-10T12:41:57;37.83;;;34.72;;
48588;SDS011;34369;51.174;6.738;2023-05-10T12:44:48;36.22;;;33.33;;
48588;SDS011;34369;51.174;6.738;2023-05-10T12:47:34;37.53;;;34.42;;
48588;SDS011;34369;51.174;6.738;2023-05-10T12:53:37;36.50;;;33.50;;
48588;SDS011;34369;51.174;6.738;2023-05-10T13:03:58;37.10;;;34.13;;
48588;SDS011;34369;51.174;6.738;2023-05-10T13:10:39;35.05;;;32.25;;
48588;SDS011;34369;51.174;6.738;2023-05-10T13:13:15;35.30;;;32.40;;
48588;SDS011;34369;51.174;6.738;2023-05-10T13:15:54;36.33;;;33.33;;
48588;SDS011;34369;51.174;6.738;2023-05-10T13:18:28;33.78;;;31.13;;
48588;SDS011;34369;51.174;6.738;2023-05-10T13:21:02;35.13;;;32.22;;
48588;SDS011;34369;51.174;6.738;2023-05-10T13:23:37;32.83;;;30.33;;
48588;SDS011;34369;51.174;6.738;2023-05-10T13:26:12;32.30;;;29.80;;
48588;SDS011;34369;51.174;6.738;2023-05-10T13:28:56;32.47;;;29.90;;
48588;SDS011;34369;51.174;6.738;2023-05-10T13:31:29;31.92;;;29.48;;
48588;SDS011;34369;51.174;6.738;2023-05-10T13:34:03;32.78;;;30.17;;
48588;SDS011;34369;51.174;6.738;2023-05-10T13:36:38;33.30;;;30.50;;
48588;SDS011;34369;51.174;6.738;2023-05-10T13:39:15;32.15;;;29.75;;
48588;SDS011;34369;51.174;6.738;2023-05-10T13:42:04;31.00;;;28.60;;
48588;SDS011;34369;51.174;6.738;2023-05-10T13:44:56;32.50;;;30.10;;
48588;SDS011;34369;51.174;6.738;2023-05-10T13:47:28;31.45;;;29.02;;
48588;SDS011;34369;51.174;6.738;2023-05-10T13:50:01;33.17;;;30.63;;
48588;SDS011;34369;51.174;6.738;2023-05-10T13:52:36;33.05;;;30.48;;
48588;SDS011;34369;51.174;6.738;2023-05-10T13:55:08;32.85;;;30.25;;
48588;SDS011;34369;51.174;6.738;2023-05-10T13:57:44;33.38;;;30.77;;
48588;SDS011;34369;51.174;6.738;2023-05-10T14:00:16;32.28;;;29.77;;
48588;SDS011;34369;51.174;6.738;2023-05-10T14:02:49;31.27;;;28.88;;
48588;SDS011;34369;51.174;6.738;2023-05-10T14:05:22;31.17;;;28.77;;
48588;SDS011;34369;51.174;6.738;2023-05-10T14:07:54;31.40;;;28.90;;
48588;SDS011;34369;51.174;6.738;2023-05-10T14:10:27;30.58;;;28.27;;
48588;SDS011;34369;51.174;6.738;2023-05-10T14:13:01;30.65;;;28.35;;
48588;SDS011;34369;51.174;6.738;2023-05-10T14:15:34;28.92;;;26.73;;
48588;SDS011;34369;51.174;6.738;2023-05-10T14:18:06;29.88;;;27.48;;
48588;SDS011;34369;51.174;6.738;2023-05-10T14:20:38;29.70;;;27.35;;
48588;SDS011;34369;51.174;6.738;2023-05-10T14:23:10;28.40;;;26.30;;
48588;SDS011;34369;51.174;6.738;2023-05-10T14:25:43;28.42;;;26.23;;
48588;SDS011;34369;51.174;6.738;2023-05-10T14:28:17;29.75;;;27.42;;
48588;SDS011;34369;51.174;6.738;2023-05-10T14:30:50;29.05;;;26.70;;
48588;SDS011;34369;51.174;6.738;2023-05-10T14:33:23;28.67;;;26.50;;
48588;SDS011;34369;51.174;6.738;2023-05-10T14:35:55;28.33;;;26.23;;
48588;SDS011;34369;51.174;6.738;2023-05-10T14:38:27;28.48;;;26.25;;
48588;SDS011;34369;51.174;6.738;2023-05-10T14:40:59;28.83;;;26.63;;
48588;SDS011;34369;51.174;6.738;2023-05-10T14:43:33;28.33;;;26.17;;
48588;SDS011;34369;51.174;6.738;2023-05-10T14:46:08;28.42;;;26.13;;
48588;SDS011;34369;51.174;6.738;2023-05-10T14:48:40;28.48;;;26.30;;
48588;SDS011;34369;51.174;6.738;2023-05-10T14:51:12;29.05;;;26.85;;
48588;SDS011;34369;51.174;6.738;2023-05-10T14:53:45;29.25;;;27.05;;
48588;SDS011;34369;51.174;6.738;2023-05-10T14:56:18;27.70;;;25.65;;
48588;SDS011;34369;51.174;6.738;2023-05-10T14:58:52;28.60;;;26.50;;
48588;SDS011;34369;51.174;6.738;2023-05-10T15:01:26;27.92;;;25.83;;
48588;SDS011;34369;51.174;6.738;2023-05-10T15:04:07;27.63;;;25.63;;
48588;SDS011;34369;51.174;6.738;2023-05-10T15:06:39;27.00;;;25.00;;
48588;SDS011;34369;51.174;6.738;2023-05-10T15:09:11;27.60;;;25.55;;
48588;SDS011;34369;51.174;6.738;2023-05-10T15:11:44;26.63;;;24.63;;
48588;SDS011;34369;51.174;6.738;2023-05-10T15:14:18;28.85;;;26.65;;
48588;SDS011;34369;51.174;6.738;2023-05-10T15:16:57;27.15;;;25.15;;
48588;SDS011;34369;51.174;6.738;2023-05-10T15:19:36;28.58;;;26.48;;
48588;SDS011;34369;51.174;6.738;2023-05-10T15:22:10;27.90;;;25.83;;
48588;SDS011;34369;51.174;6.738;2023-05-10T15:24:51;27.35;;;25.33;;
48588;SDS011;34369;51.174;6.738;2023-05-10T15:27:59;27.45;;;25.35;;
48588;SDS011;34369;51.174;6.738;2023-05-10T15:33:49;26.75;;;24.75;;
48588;SDS011;34369;51.174;6.738;2023-05-10T15:36:25;26.92;;;24.92;;
48588;SDS011;34369;51.174;6.738;2023-05-10T15:39:05;27.20;;;25.10;;